sensor_id;sensor_type;location;lat;lon;timestamp;temperature;humidity
31443;SHT31;18065;55.876;9.830;2023-02-18T00:01:52;21.69;44.56
31443;SHT31;18065;55.876;9.830;2023-02-18T00:04:20;21.71;44.51
31443;SHT31;18065;55.876;9.830;2023-02-18T00:06:54;21.74;44.48
31443;SHT31;18065;55.876;9.830;2023-02-18T00:09:23;21.70;44.64
31443;SHT31;18065;55.876;9.830;2023-02-18T00:11:52;21.70;44.46
31443;SHT31;18065;55.876;9.830;2023-02-18T00:14:21;21.73;44.61
31443;SHT31;18065;55.876;9.830;2023-02-18T00:16:50;21.70;44.56
31443;SHT31;18065;55.876;9.830;2023-02-18T00:19:19;21.69;44.62
31443;SHT31;18065;55.876;9.830;2023-02-18T00:21:48;21.70;44.61
31443;SHT31;18065;55.876;9.830;2023-02-18T00:24:19;21.70;44.70
31443;SHT31;18065;55.876;9.830;2023-02-18T00:26:49;21.70;44.68
31443;SHT31;18065;55.876;9.830;2023-02-18T00:29:19;21.70;44.51
31443;SHT31;18065;55.876;9.830;2023-02-18T00:31:48;21.69;44.56
31443;SHT31;18065;55.876;9.830;2023-02-18T00:34:16;21.70;44.53
31443;SHT31;18065;55.876;9.830;2023-02-18T00:36:45;21.69;44.68
31443;SHT31;18065;55.876;9.830;2023-02-18T00:39:14;21.69;44.44
31443;SHT31;18065;55.876;9.830;2023-02-18T00:41:45;21.67;44.69
31443;SHT31;18065;55.876;9.830;2023-02-18T00:44:14;21.69;44.58
31443;SHT31;18065;55.876;9.830;2023-02-18T00:46:43;21.69;44.53
31443;SHT31;18065;55.876;9.830;2023-02-18T00:49:12;21.70;44.47
31443;SHT31;18065;55.876;9.830;2023-02-18T00:51:42;21.66;44.42
31443;SHT31;18065;55.876;9.830;2023-02-18T00:54:11;21.67;44.50
31443;SHT31;18065;55.876;9.830;2023-02-18T00:56:40;21.69;44.53
31443;SHT31;18065;55.876;9.830;2023-02-18T00:59:11;21.67;44.61
31443;SHT31;18065;55.876;9.830;2023-02-18T01:01:40;21.66;44.49
31443;SHT31;18065;55.876;9.830;2023-02-18T01:04:09;21.67;44.67
31443;SHT31;18065;55.876;9.830;2023-02-18T01:06:37;21.66;44.56
31443;SHT31;18065;55.876;9.830;2023-02-18T01:09:06;21.69;44.57
31443;SHT31;18065;55.876;9.830;2023-02-18T01:11:35;21.66;44.65
31443;SHT31;18065;55.876;9.830;2023-02-18T01:14:04;21.66;44.59
31443;SHT31;18065;55.876;9.830;2023-02-18T01:16:36;21.67;44.65
31443;SHT31;18065;55.876;9.830;2023-02-18T01:19:05;21.67;44.51
31443;SHT31;18065;55.876;9.830;2023-02-18T01:21:35;21.65;44.43
31443;SHT31;18065;55.876;9.830;2023-02-18T01:24:05;21.66;44.57
31443;SHT31;18065;55.876;9.830;2023-02-18T01:26:33;21.66;44.61
31443;SHT31;18065;55.876;9.830;2023-02-18T01:29:02;21.65;44.50
31443;SHT31;18065;55.876;9.830;2023-02-18T01:31:32;21.65;44.47
31443;SHT31;18065;55.876;9.830;2023-02-18T01:34:04;21.65;44.59
31443;SHT31;18065;55.876;9.830;2023-02-18T01:36:32;21.63;44.44
31443;SHT31;18065;55.876;9.830;2023-02-18T01:39:01;21.63;44.52
31443;SHT31;18065;55.876;9.830;2023-02-18T01:41:30;21.66;44.48
31443;SHT31;18065;55.876;9.830;2023-02-18T01:44:13;21.65;44.55
31443;SHT31;18065;55.876;9.830;2023-02-18T01:46:42;21.66;44.57
31443;SHT31;18065;55.876;9.830;2023-02-18T01:49:15;21.65;44.62
31443;SHT31;18065;55.876;9.830;2023-02-18T01:51:45;21.67;44.72
31443;SHT31;18065;55.876;9.830;2023-02-18T01:54:20;21.63;44.72
31443;SHT31;18065;55.876;9.830;2023-02-18T01:56:52;21.65;44.78
31443;SHT31;18065;55.876;9.830;2023-02-18T01:59:24;21.63;44.71
31443;SHT31;18065;55.876;9.830;2023-02-18T02:01:54;21.63;44.69
31443;SHT31;18065;55.876;9.830;2023-02-18T02:04:26;21.62;44.65
31443;SHT31;18065;55.876;9.830;2023-02-18T02:06:55;21.60;44.72
31443;SHT31;18065;55.876;9.830;2023-02-18T02:09:25;21.62;44.71
31443;SHT31;18065;55.876;9.830;2023-02-18T02:12:19;21.63;44.74
31443;SHT31;18065;55.876;9.830;2023-02-18T02:15:17;21.63;44.77
31443;SHT31;18065;55.876;9.830;2023-02-18T02:17:59;21.65;44.67
31443;SHT31;18065;55.876;9.830;2023-02-18T02:23:56;21.59;44.77
31443;SHT31;18065;55.876;9.830;2023-02-18T02:33:05;21.60;44.85
31443;SHT31;18065;55.876;9.830;2023-02-18T02:35:44;21.59;44.78
31443;SHT31;18065;55.876;9.830;2023-02-18T02:38:21;21.60;44.73
31443;SHT31;18065;55.876;9.830;2023-02-18T02:40:56;21.58;44.80
31443;SHT31;18065;55.876;9.830;2023-02-18T02:43:34;21.59;44.73
31443;SHT31;18065;55.876;9.830;2023-02-18T02:46:09;21.59;44.77
31443;SHT31;18065;55.876;9.830;2023-02-18T02:48:47;21.60;44.77
31443;SHT31;18065;55.876;9.830;2023-02-18T02:51:24;21.60;44.86
31443;SHT31;18065;55.876;9.830;2023-02-18T02:53:54;21.59;44.71
31443;SHT31;18065;55.876;9.830;2023-02-18T02:56:35;21.59;44.68
31443;SHT31;18065;55.876;9.830;2023-02-18T02:59:08;21.59;44.70
31443;SHT31;18065;55.876;9.830;2023-02-18T03:01:48;21.59;44.64
31443;SHT31;18065;55.876;9.830;2023-02-18T03:04:30;21.59;44.74
31443;SHT31;18065;55.876;9.830;2023-02-18T03:07:31;21.60;44.86
31443;SHT31;18065;55.876;9.830;2023-02-18T03:10:23;21.62;44.76
31443;SHT31;18065;55.876;9.830;2023-02-18T03:13:01;21.62;44.76
31443;SHT31;18065;55.876;9.830;2023-02-18T03:15:37;21.59;44.68
31443;SHT31;18065;55.876;9.830;2023-02-18T03:18:12;21.56;44.79
31443;SHT31;18065;55.876;9.830;2023-02-18T03:20:47;21.56;44.77
31443;SHT31;18065;55.876;9.830;2023-02-18T03:23:24;21.59;44.80
31443;SHT31;18065;55.876;9.830;2023-02-18T03:25:55;21.58;44.70
31443;SHT31;18065;55.876;9.830;2023-02-18T03:28:27;21.58;44.72
31443;SHT31;18065;55.876;9.830;2023-02-18T03:31:00;21.59;44.73
31443;SHT31;18065;55.876;9.830;2023-02-18T03:33:36;21.58;44.61
31443;SHT31;18065;55.876;9.830;2023-02-18T03:36:08;21.60;44.72
31443;SHT31;18065;55.876;9.830;2023-02-18T03:38:44;21.60;44.74
31443;SHT31;18065;55.876;9.830;2023-02-18T03:41:14;21.59;44.83
31443;SHT31;18065;55.876;9.830;2023-02-18T03:43:48;21.59;44.80
31443;SHT31;18065;55.876;9.830;2023-02-18T03:46:17;21.58;44.79
31443;SHT31;18065;55.876;9.830;2023-02-18T03:48:46;21.59;44.90
31443;SHT31;18065;55.876;9.830;2023-02-18T03:51:18;21.56;44.84
31443;SHT31;18065;55.876;9.830;2023-02-18T03:53:49;21.58;44.83
31443;SHT31;18065;55.876;9.830;2023-02-18T03:56:18;21.58;44.87
31443;SHT31;18065;55.876;9.830;2023-02-18T03:58:47;21.59;44.83
31443;SHT31;18065;55.876;9.830;2023-02-18T04:01:16;21.59;44.82
31443;SHT31;18065;55.876;9.830;2023-02-18T04:03:45;21.59;44.87
31443;SHT31;18065;55.876;9.830;2023-02-18T04:06:14;21.56;44.75
31443;SHT31;18065;55.876;9.830;2023-02-18T04:08:43;21.56;44.83
31443;SHT31;18065;55.876;9.830;2023-02-18T04:11:14;21.55;44.80
31443;SHT31;18065;55.876;9.830;2023-02-18T04:13:43;21.58;44.76
31443;SHT31;18065;55.876;9.830;2023-02-18T04:16:13;21.56;44.85
31443;SHT31;18065;55.876;9.830;2023-02-18T04:18:41;21.58;44.66
31443;SHT31;18065;55.876;9.830;2023-02-18T04:21:10;21.58;44.77
31443;SHT31;18065;55.876;9.830;2023-02-18T04:23:39;21.60;44.72
31443;SHT31;18065;55.876;9.830;2023-02-18T04:26:08;21.56;44.71
31443;SHT31;18065;55.876;9.830;2023-02-18T04:28:39;21.58;44.70
31443;SHT31;18065;55.876;9.830;2023-02-18T04:31:08;21.58;44.79
31443;SHT31;18065;55.876;9.830;2023-02-18T04:33:36;21.55;44.74
31443;SHT31;18065;55.876;9.830;2023-02-18T04:36:06;21.56;44.77
31443;SHT31;18065;55.876;9.830;2023-02-18T04:38:35;21.56;44.70
31443;SHT31;18065;55.876;9.830;2023-02-18T04:41:04;21.56;44.88
31443;SHT31;18065;55.876;9.830;2023-02-18T04:43:32;21.56;44.83
31443;SHT31;18065;55.876;9.830;2023-02-18T04:46:04;21.55;44.80
31443;SHT31;18065;55.876;9.830;2023-02-18T04:48:34;21.56;44.75
31443;SHT31;18065;55.876;9.830;2023-02-18T04:51:03;21.56;44.61
31443;SHT31;18065;55.876;9.830;2023-02-18T04:53:34;21.58;44.79
31443;SHT31;18065;55.876;9.830;2023-02-18T04:56:03;21.56;44.76
31443;SHT31;18065;55.876;9.830;2023-02-18T04:58:32;21.56;44.65
31443;SHT31;18065;55.876;9.830;2023-02-18T05:01:04;21.58;44.77
31443;SHT31;18065;55.876;9.830;2023-02-18T05:03:33;21.56;44.84
31443;SHT31;18065;55.876;9.830;2023-02-18T05:06:02;21.55;44.88
31443;SHT31;18065;55.876;9.830;2023-02-18T05:08:30;21.58;44.87
31443;SHT31;18065;55.876;9.830;2023-02-18T05:11:01;21.53;44.85
31443;SHT31;18065;55.876;9.830;2023-02-18T05:13:32;21.55;44.82
31443;SHT31;18065;55.876;9.830;2023-02-18T05:16:04;21.53;44.83
31443;SHT31;18065;55.876;9.830;2023-02-18T05:18:34;21.53;44.85
31443;SHT31;18065;55.876;9.830;2023-02-18T05:21:03;21.53;44.86
31443;SHT31;18065;55.876;9.830;2023-02-18T05:23:32;21.55;44.79
31443;SHT31;18065;55.876;9.830;2023-02-18T05:26:02;21.53;44.79
31443;SHT31;18065;55.876;9.830;2023-02-18T05:28:30;21.52;44.94
31443;SHT31;18065;55.876;9.830;2023-02-18T05:30:59;21.55;44.89
31443;SHT31;18065;55.876;9.830;2023-02-18T05:33:31;21.55;44.82
31443;SHT31;18065;55.876;9.830;2023-02-18T05:35:59;21.53;44.84
31443;SHT31;18065;55.876;9.830;2023-02-18T05:38:28;21.50;44.93
31443;SHT31;18065;55.876;9.830;2023-02-18T05:40:57;21.55;44.92
31443;SHT31;18065;55.876;9.830;2023-02-18T05:43:26;21.52;44.98
31443;SHT31;18065;55.876;9.830;2023-02-18T05:45:54;21.55;44.90
31443;SHT31;18065;55.876;9.830;2023-02-18T05:48:23;21.55;44.92
31443;SHT31;18065;55.876;9.830;2023-02-18T05:50:55;21.55;44.92
31443;SHT31;18065;55.876;9.830;2023-02-18T05:53:24;21.52;44.91
31443;SHT31;18065;55.876;9.830;2023-02-18T05:55:53;21.53;44.81
31443;SHT31;18065;55.876;9.830;2023-02-18T05:58:22;21.50;44.89
31443;SHT31;18065;55.876;9.830;2023-02-18T06:00:50;21.53;44.76
31443;SHT31;18065;55.876;9.830;2023-02-18T06:03:21;21.53;44.95
31443;SHT31;18065;55.876;9.830;2023-02-18T06:05:50;21.52;44.87
31443;SHT31;18065;55.876;9.830;2023-02-18T06:08:21;21.52;44.87
31443;SHT31;18065;55.876;9.830;2023-02-18T06:10:50;21.50;44.89
31443;SHT31;18065;55.876;9.830;2023-02-18T06:13:19;21.50;44.92
31443;SHT31;18065;55.876;9.830;2023-02-18T06:15:50;21.50;44.86
31443;SHT31;18065;55.876;9.830;2023-02-18T06:18:19;21.50;44.85
31443;SHT31;18065;55.876;9.830;2023-02-18T06:20:50;21.52;44.84
31443;SHT31;18065;55.876;9.830;2023-02-18T06:23:21;21.50;44.80
31443;SHT31;18065;55.876;9.830;2023-02-18T06:25:50;21.50;44.92
31443;SHT31;18065;55.876;9.830;2023-02-18T06:28:19;21.52;44.92
31443;SHT31;18065;55.876;9.830;2023-02-18T06:30:48;21.52;44.91
31443;SHT31;18065;55.876;9.830;2023-02-18T06:33:17;21.52;44.97
31443;SHT31;18065;55.876;9.830;2023-02-18T06:35:53;21.50;44.96
31443;SHT31;18065;55.876;9.830;2023-02-18T06:38:25;21.52;44.93
31443;SHT31;18065;55.876;9.830;2023-02-18T06:40:55;21.50;44.85
31443;SHT31;18065;55.876;9.830;2023-02-18T06:43:24;21.49;44.93
31443;SHT31;18065;55.876;9.830;2023-02-18T06:45:53;21.48;44.80
31443;SHT31;18065;55.876;9.830;2023-02-18T06:48:22;21.50;44.87
31443;SHT31;18065;55.876;9.830;2023-02-18T06:50:51;21.50;44.93
31443;SHT31;18065;55.876;9.830;2023-02-18T06:53:20;21.48;44.98
31443;SHT31;18065;55.876;9.830;2023-02-18T06:55:51;21.52;44.97
31443;SHT31;18065;55.876;9.830;2023-02-18T06:58:20;21.48;44.98
31443;SHT31;18065;55.876;9.830;2023-02-18T07:00:49;21.49;44.83
31443;SHT31;18065;55.876;9.830;2023-02-18T07:03:17;21.49;44.78
31443;SHT31;18065;55.876;9.830;2023-02-18T07:05:46;21.50;44.91
31443;SHT31;18065;55.876;9.830;2023-02-18T07:08:15;21.49;44.95
31443;SHT31;18065;55.876;9.830;2023-02-18T07:10:44;21.49;44.98
31443;SHT31;18065;55.876;9.830;2023-02-18T07:13:15;21.48;44.97
31443;SHT31;18065;55.876;9.830;2023-02-18T07:15:44;21.48;44.84
31443;SHT31;18065;55.876;9.830;2023-02-18T07:18:14;21.48;44.87
31443;SHT31;18065;55.876;9.830;2023-02-18T07:20:43;21.48;44.97
31443;SHT31;18065;55.876;9.830;2023-02-18T07:23:12;21.48;44.88
31443;SHT31;18065;55.876;9.830;2023-02-18T07:25:40;21.46;44.99
31443;SHT31;18065;55.876;9.830;2023-02-18T07:28:09;21.49;44.96
31443;SHT31;18065;55.876;9.830;2023-02-18T07:30:41;21.49;44.95
31443;SHT31;18065;55.876;9.830;2023-02-18T07:33:09;21.49;44.96
31443;SHT31;18065;55.876;9.830;2023-02-18T07:35:38;21.49;44.94
31443;SHT31;18065;55.876;9.830;2023-02-18T07:38:08;21.46;44.96
31443;SHT31;18065;55.876;9.830;2023-02-18T07:40:38;21.48;44.89
31443;SHT31;18065;55.876;9.830;2023-02-18T07:43:07;21.48;44.96
31443;SHT31;18065;55.876;9.830;2023-02-18T07:45:39;21.48;44.97
31443;SHT31;18065;55.876;9.830;2023-02-18T07:48:08;21.49;44.87
31443;SHT31;18065;55.876;9.830;2023-02-18T07:50:39;21.48;44.98
31443;SHT31;18065;55.876;9.830;2023-02-18T07:53:09;21.46;44.98
31443;SHT31;18065;55.876;9.830;2023-02-18T07:55:38;21.46;44.69
31443;SHT31;18065;55.876;9.830;2023-02-18T07:58:20;21.48;44.90
31443;SHT31;18065;55.876;9.830;2023-02-18T08:00:53;21.45;44.95
31443;SHT31;18065;55.876;9.830;2023-02-18T08:03:25;21.48;44.99
31443;SHT31;18065;55.876;9.830;2023-02-18T08:05:55;21.45;44.98
31443;SHT31;18065;55.876;9.830;2023-02-18T08:08:26;21.46;44.86
31443;SHT31;18065;55.876;9.830;2023-02-18T08:10:56;21.45;44.85
31443;SHT31;18065;55.876;9.830;2023-02-18T08:13:26;21.46;44.89
31443;SHT31;18065;55.876;9.830;2023-02-18T08:15:57;21.45;44.93
31443;SHT31;18065;55.876;9.830;2023-02-18T08:18:29;21.46;44.89
31443;SHT31;18065;55.876;9.830;2023-02-18T08:20:57;21.46;44.75
31443;SHT31;18065;55.876;9.830;2023-02-18T08:23:26;21.45;44.91
31443;SHT31;18065;55.876;9.830;2023-02-18T08:25:59;21.46;44.94
31443;SHT31;18065;55.876;9.830;2023-02-18T08:28:27;21.46;44.88
31443;SHT31;18065;55.876;9.830;2023-02-18T08:30:59;21.45;44.86
31443;SHT31;18065;55.876;9.830;2023-02-18T08:33:28;21.45;44.79
31443;SHT31;18065;55.876;9.830;2023-02-18T08:35:57;21.45;44.73
31443;SHT31;18065;55.876;9.830;2023-02-18T08:38:26;21.46;44.77
31443;SHT31;18065;55.876;9.830;2023-02-18T08:41:01;21.46;44.85
31443;SHT31;18065;55.876;9.830;2023-02-18T08:43:30;21.48;44.71
31443;SHT31;18065;55.876;9.830;2023-02-18T08:46:01;21.43;44.76
31443;SHT31;18065;55.876;9.830;2023-02-18T08:48:30;21.45;44.50
31443;SHT31;18065;55.876;9.830;2023-02-18T08:50:59;21.43;44.64
31443;SHT31;18065;55.876;9.830;2023-02-18T08:53:28;21.43;44.81
31443;SHT31;18065;55.876;9.830;2023-02-18T08:55:57;21.46;44.82
31443;SHT31;18065;55.876;9.830;2023-02-18T08:58:25;21.45;44.69
31443;SHT31;18065;55.876;9.830;2023-02-18T09:00:54;21.46;44.79
31443;SHT31;18065;55.876;9.830;2023-02-18T09:03:25;21.43;44.82
31443;SHT31;18065;55.876;9.830;2023-02-18T09:05:55;21.45;44.63
31443;SHT31;18065;55.876;9.830;2023-02-18T09:08:24;21.45;44.77
31443;SHT31;18065;55.876;9.830;2023-02-18T09:10:55;21.43;44.82
31443;SHT31;18065;55.876;9.830;2023-02-18T09:13:24;21.43;44.90
31443;SHT31;18065;55.876;9.830;2023-02-18T09:15:58;21.45;44.83
31443;SHT31;18065;55.876;9.830;2023-02-18T09:18:30;21.46;44.87
31443;SHT31;18065;55.876;9.830;2023-02-18T09:21:00;21.45;44.87
31443;SHT31;18065;55.876;9.830;2023-02-18T09:23:30;21.45;44.96
31443;SHT31;18065;55.876;9.830;2023-02-18T09:25:59;21.45;44.86
31443;SHT31;18065;55.876;9.830;2023-02-18T09:28:28;21.42;44.90
31443;SHT31;18065;55.876;9.830;2023-02-18T09:30:57;21.45;44.90
31443;SHT31;18065;55.876;9.830;2023-02-18T09:33:25;21.45;44.78
31443;SHT31;18065;55.876;9.830;2023-02-18T09:35:57;21.46;44.90
31443;SHT31;18065;55.876;9.830;2023-02-18T09:38:26;21.45;44.93
31443;SHT31;18065;55.876;9.830;2023-02-18T09:40:56;21.45;44.91
31443;SHT31;18065;55.876;9.830;2023-02-18T09:43:29;21.45;44.99
31443;SHT31;18065;55.876;9.830;2023-02-18T09:46:00;21.42;44.94
31443;SHT31;18065;55.876;9.830;2023-02-18T09:48:31;21.42;44.93
31443;SHT31;18065;55.876;9.830;2023-02-18T09:51:03;21.42;44.90
31443;SHT31;18065;55.876;9.830;2023-02-18T09:53:32;21.43;44.89
31443;SHT31;18065;55.876;9.830;2023-02-18T09:56:01;21.45;44.95
31443;SHT31;18065;55.876;9.830;2023-02-18T09:58:32;21.43;44.92
31443;SHT31;18065;55.876;9.830;2023-02-18T10:01:09;21.45;44.96
31443;SHT31;18065;55.876;9.830;2023-02-18T10:03:38;21.46;45.04
31443;SHT31;18065;55.876;9.830;2023-02-18T10:06:15;21.43;45.09
31443;SHT31;18065;55.876;9.830;2023-02-18T10:08:47;21.45;44.90
31443;SHT31;18065;55.876;9.830;2023-02-18T10:11:22;21.42;45.01
31443;SHT31;18065;55.876;9.830;2023-02-18T10:13:52;21.45;44.94
31443;SHT31;18065;55.876;9.830;2023-02-18T10:16:24;21.43;45.02
31443;SHT31;18065;55.876;9.830;2023-02-18T10:18:54;21.43;45.05
31443;SHT31;18065;55.876;9.830;2023-02-18T10:21:28;21.43;45.02
31443;SHT31;18065;55.876;9.830;2023-02-18T10:24:00;21.45;44.96
31443;SHT31;18065;55.876;9.830;2023-02-18T10:26:30;21.42;44.94
31443;SHT31;18065;55.876;9.830;2023-02-18T10:29:01;21.42;44.98
31443;SHT31;18065;55.876;9.830;2023-02-18T10:31:33;21.42;45.09
31443;SHT31;18065;55.876;9.830;2023-02-18T10:34:10;21.43;45.01
31443;SHT31;18065;55.876;9.830;2023-02-18T10:36:44;21.42;45.02
31443;SHT31;18065;55.876;9.830;2023-02-18T10:39:23;21.43;44.98
31443;SHT31;18065;55.876;9.830;2023-02-18T10:42:08;21.42;45.07
31443;SHT31;18065;55.876;9.830;2023-02-18T10:44:48;21.41;45.07
31443;SHT31;18065;55.876;9.830;2023-02-18T10:47:23;21.45;45.08
31443;SHT31;18065;55.876;9.830;2023-02-18T10:50:02;21.42;45.09
31443;SHT31;18065;55.876;9.830;2023-02-18T10:52:36;21.45;45.14
31443;SHT31;18065;55.876;9.830;2023-02-18T10:55:08;21.42;45.03
31443;SHT31;18065;55.876;9.830;2023-02-18T10:57:47;21.42;45.13
31443;SHT31;18065;55.876;9.830;2023-02-18T11:00:18;21.43;45.12
31443;SHT31;18065;55.876;9.830;2023-02-18T11:03:02;21.43;45.15
31443;SHT31;18065;55.876;9.830;2023-02-18T11:05:37;21.43;45.07
31443;SHT31;18065;55.876;9.830;2023-02-18T11:08:13;21.43;45.09
31443;SHT31;18065;55.876;9.830;2023-02-18T11:10:44;21.43;45.14
31443;SHT31;18065;55.876;9.830;2023-02-18T11:13:16;21.43;45.12
31443;SHT31;18065;55.876;9.830;2023-02-18T11:15:59;21.45;45.16
31443;SHT31;18065;55.876;9.830;2023-02-18T11:18:36;21.42;45.10
31443;SHT31;18065;55.876;9.830;2023-02-18T11:21:20;21.42;45.18
31443;SHT31;18065;55.876;9.830;2023-02-18T11:23:53;21.42;45.16
31443;SHT31;18065;55.876;9.830;2023-02-18T11:26:27;21.43;45.09
31443;SHT31;18065;55.876;9.830;2023-02-18T11:29:00;21.43;45.08
31443;SHT31;18065;55.876;9.830;2023-02-18T11:31:39;21.41;45.15
31443;SHT31;18065;55.876;9.830;2023-02-18T11:34:15;21.42;45.09
31443;SHT31;18065;55.876;9.830;2023-02-18T11:36:46;21.42;45.18
31443;SHT31;18065;55.876;9.830;2023-02-18T11:39:22;21.43;45.07
31443;SHT31;18065;55.876;9.830;2023-02-18T11:41:56;21.43;45.12
31443;SHT31;18065;55.876;9.830;2023-02-18T11:44:28;21.42;45.19
31443;SHT31;18065;55.876;9.830;2023-02-18T11:47:19;21.41;45.18
31443;SHT31;18065;55.876;9.830;2023-02-18T11:52:47;21.43;45.14
31443;SHT31;18065;55.876;9.830;2023-02-18T11:55:24;21.42;45.11
31443;SHT31;18065;55.876;9.830;2023-02-18T11:57:57;21.41;45.15
31443;SHT31;18065;55.876;9.830;2023-02-18T12:00:36;21.41;45.20
31443;SHT31;18065;55.876;9.830;2023-02-18T12:03:08;21.42;45.10
31443;SHT31;18065;55.876;9.830;2023-02-18T12:05:41;21.45;45.19
31443;SHT31;18065;55.876;9.830;2023-02-18T12:08:14;21.42;45.10
31443;SHT31;18065;55.876;9.830;2023-02-18T12:10:50;21.41;45.20
31443;SHT31;18065;55.876;9.830;2023-02-18T12:13:24;21.42;45.23
31443;SHT31;18065;55.876;9.830;2023-02-18T12:16:04;21.42;45.21
31443;SHT31;18065;55.876;9.830;2023-02-18T12:21:34;21.43;45.22
31443;SHT31;18065;55.876;9.830;2023-02-18T12:24:19;21.41;45.21
31443;SHT31;18065;55.876;9.830;2023-02-18T12:27:03;21.42;45.17
31443;SHT31;18065;55.876;9.830;2023-02-18T12:30:18;21.39;45.20
31443;SHT31;18065;55.876;9.830;2023-02-18T12:32:53;21.42;45.23
31443;SHT31;18065;55.876;9.830;2023-02-18T12:35:38;21.42;45.31
31443;SHT31;18065;55.876;9.830;2023-02-18T12:41:33;21.39;45.31
31443;SHT31;18065;55.876;9.830;2023-02-18T12:44:21;21.41;45.27
31443;SHT31;18065;55.876;9.830;2023-02-18T12:47:06;21.41;45.28
31443;SHT31;18065;55.876;9.830;2023-02-18T12:50:01;21.42;45.30
31443;SHT31;18065;55.876;9.830;2023-02-18T12:52:40;21.43;45.31
31443;SHT31;18065;55.876;9.830;2023-02-18T12:55:29;21.43;45.30
31443;SHT31;18065;55.876;9.830;2023-02-18T12:58:12;21.41;45.31
31443;SHT31;18065;55.876;9.830;2023-02-18T13:01:24;21.42;45.33
31443;SHT31;18065;55.876;9.830;2023-02-18T13:04:14;21.41;45.34
31443;SHT31;18065;55.876;9.830;2023-02-18T13:06:57;21.42;45.30
31443;SHT31;18065;55.876;9.830;2023-02-18T13:09:37;21.41;45.30
31443;SHT31;18065;55.876;9.830;2023-02-18T13:12:13;21.42;45.23
31443;SHT31;18065;55.876;9.830;2023-02-18T13:14:50;21.42;45.27
31443;SHT31;18065;55.876;9.830;2023-02-18T13:17:26;21.43;45.26
31443;SHT31;18065;55.876;9.830;2023-02-18T13:20:00;21.43;45.21
31443;SHT31;18065;55.876;9.830;2023-02-18T13:22:30;21.42;45.19
31443;SHT31;18065;55.876;9.830;2023-02-18T13:25:00;21.42;45.24
31443;SHT31;18065;55.876;9.830;2023-02-18T13:27:35;21.43;45.28
31443;SHT31;18065;55.876;9.830;2023-02-18T13:30:19;21.41;45.26
31443;SHT31;18065;55.876;9.830;2023-02-18T13:32:59;21.42;45.23
31443;SHT31;18065;55.876;9.830;2023-02-18T13:35:32;21.42;45.26
31443;SHT31;18065;55.876;9.830;2023-02-18T13:38:27;21.42;45.29
31443;SHT31;18065;55.876;9.830;2023-02-18T13:40:58;21.43;45.21
31443;SHT31;18065;55.876;9.830;2023-02-18T13:43:33;21.43;45.25
31443;SHT31;18065;55.876;9.830;2023-02-18T13:46:07;21.42;45.21
31443;SHT31;18065;55.876;9.830;2023-02-18T13:48:43;21.43;45.30
31443;SHT31;18065;55.876;9.830;2023-02-18T13:51:15;21.43;45.22
31443;SHT31;18065;55.876;9.830;2023-02-18T13:53:50;21.43;45.25
31443;SHT31;18065;55.876;9.830;2023-02-18T13:56:21;21.45;45.23
31443;SHT31;18065;55.876;9.830;2023-02-18T13:58:53;21.43;45.13
31443;SHT31;18065;55.876;9.830;2023-02-18T14:01:35;21.43;45.26
31443;SHT31;18065;55.876;9.830;2023-02-18T14:04:38;21.42;45.22
31443;SHT31;18065;55.876;9.830;2023-02-18T14:07:46;21.42;45.29
31443;SHT31;18065;55.876;9.830;2023-02-18T14:10:30;21.42;45.27
31443;SHT31;18065;55.876;9.830;2023-02-18T14:13:18;21.42;45.28
31443;SHT31;18065;55.876;9.830;2023-02-18T14:15:52;21.42;45.26
31443;SHT31;18065;55.876;9.830;2023-02-18T14:18:29;21.41;45.27
31443;SHT31;18065;55.876;9.830;2023-02-18T14:21:21;21.39;45.30
31443;SHT31;18065;55.876;9.830;2023-02-18T14:23:59;21.43;45.22
31443;SHT31;18065;55.876;9.830;2023-02-18T14:26:30;21.39;45.25
31443;SHT31;18065;55.876;9.830;2023-02-18T14:29:17;21.41;45.31
31443;SHT31;18065;55.876;9.830;2023-02-18T14:31:51;21.42;45.30
31443;SHT31;18065;55.876;9.830;2023-02-18T14:40:57;21.42;45.26
31443;SHT31;18065;55.876;9.830;2023-02-18T14:43:43;21.39;45.15
31443;SHT31;18065;55.876;9.830;2023-02-18T14:46:18;21.41;45.26
31443;SHT31;18065;55.876;9.830;2023-02-18T14:49:04;21.36;45.40
31443;SHT31;18065;55.876;9.830;2023-02-18T14:51:36;21.41;45.42
31443;SHT31;18065;55.876;9.830;2023-02-18T14:54:14;21.39;45.47
31443;SHT31;18065;55.876;9.830;2023-02-18T14:56:52;21.38;45.55
31443;SHT31;18065;55.876;9.830;2023-02-18T14:59:26;21.41;45.61
31443;SHT31;18065;55.876;9.830;2023-02-18T15:01:56;21.41;45.61
31443;SHT31;18065;55.876;9.830;2023-02-18T15:04:26;21.41;45.59
31443;SHT31;18065;55.876;9.830;2023-02-18T15:06:59;21.41;45.56
31443;SHT31;18065;55.876;9.830;2023-02-18T15:09:31;21.39;45.79
31443;SHT31;18065;55.876;9.830;2023-02-18T15:12:01;21.38;45.79
31443;SHT31;18065;55.876;9.830;2023-02-18T15:14:34;21.41;45.75
31443;SHT31;18065;55.876;9.830;2023-02-18T15:17:05;21.41;45.71
31443;SHT31;18065;55.876;9.830;2023-02-18T15:19:38;21.39;45.71
31443;SHT31;18065;55.876;9.830;2023-02-18T15:22:14;21.39;45.75
31443;SHT31;18065;55.876;9.830;2023-02-18T15:24:46;21.39;45.67
31443;SHT31;18065;55.876;9.830;2023-02-18T15:27:17;21.41;45.77
31443;SHT31;18065;55.876;9.830;2023-02-18T15:29:49;21.38;45.72
31443;SHT31;18065;55.876;9.830;2023-02-18T15:32:20;21.39;45.75
31443;SHT31;18065;55.876;9.830;2023-02-18T15:34:50;21.41;45.72
31443;SHT31;18065;55.876;9.830;2023-02-18T15:37:19;21.39;45.71
31443;SHT31;18065;55.876;9.830;2023-02-18T15:39:50;21.41;45.77
31443;SHT31;18065;55.876;9.830;2023-02-18T15:42:25;21.38;45.71
31443;SHT31;18065;55.876;9.830;2023-02-18T15:44:56;21.39;45.70
31443;SHT31;18065;55.876;9.830;2023-02-18T15:47:25;21.41;45.70
31443;SHT31;18065;55.876;9.830;2023-02-18T15:49:57;21.41;45.74
31443;SHT31;18065;55.876;9.830;2023-02-18T15:52:28;21.38;45.74
31443;SHT31;18065;55.876;9.830;2023-02-18T15:55:05;21.41;45.74
31443;SHT31;18065;55.876;9.830;2023-02-18T15:57:35;21.41;45.72
31443;SHT31;18065;55.876;9.830;2023-02-18T16:00:13;21.39;45.72
31443;SHT31;18065;55.876;9.830;2023-02-18T16:02:52;21.38;45.77
31443;SHT31;18065;55.876;9.830;2023-02-18T16:05:26;21.38;45.70
31443;SHT31;18065;55.876;9.830;2023-02-18T16:08:00;21.36;45.70
31443;SHT31;18065;55.876;9.830;2023-02-18T16:10:41;21.41;45.68
31443;SHT31;18065;55.876;9.830;2023-02-18T16:13:13;21.35;45.72
31443;SHT31;18065;55.876;9.830;2023-02-18T16:15:44;21.36;45.77
31443;SHT31;18065;55.876;9.830;2023-02-18T16:18:28;21.35;45.77
31443;SHT31;18065;55.876;9.830;2023-02-18T16:21:00;21.36;45.81
31443;SHT31;18065;55.876;9.830;2023-02-18T16:23:40;21.36;45.82
31443;SHT31;18065;55.876;9.830;2023-02-18T16:26:20;21.36;45.79
31443;SHT31;18065;55.876;9.830;2023-02-18T16:28:52;21.36;45.84
31443;SHT31;18065;55.876;9.830;2023-02-18T16:31:21;21.36;45.85
31443;SHT31;18065;55.876;9.830;2023-02-18T16:33:50;21.35;45.88